sensor_id;sensor_type;location;lat;lon;timestamp;temperature;humidity
13482;DHT22;6813;60.352;15.746;2022-10-16T00:01:19;10.30;99.90
13482;DHT22;6813;60.352;15.746;2022-10-16T00:03:46;10.30;99.90
13482;DHT22;6813;60.352;15.746;2022-10-16T00:06:12;10.40;99.90
13482;DHT22;6813;60.352;15.746;2022-10-16T00:08:40;10.30;99.90
13482;DHT22;6813;60.352;15.746;2022-10-16T00:11:09;10.30;99.90
13482;DHT22;6813;60.352;15.746;2022-10-16T00:13:36;10.40;99.90
13482;DHT22;6813;60.352;15.746;2022-10-16T00:16:02;10.40;99.90
13482;DHT22;6813;60.352;15.746;2022-10-16T00:18:29;10.40;99.90
13482;DHT22;6813;60.352;15.746;2022-10-16T00:20:56;10.40;99.90
13482;DHT22;6813;60.352;15.746;2022-10-16T00:23:26;10.50;99.90
13482;DHT22;6813;60.352;15.746;2022-10-16T00:25:57;10.50;99.90
13482;DHT22;6813;60.352;15.746;2022-10-16T00:28:23;10.60;99.90
13482;DHT22;6813;60.352;15.746;2022-10-16T00:30:48;10.70;99.90
13482;DHT22;6813;60.352;15.746;2022-10-16T00:33:14;10.70;99.90
13482;DHT22;6813;60.352;15.746;2022-10-16T00:35:40;10.80;99.90
13482;DHT22;6813;60.352;15.746;2022-10-16T00:38:05;10.80;99.90
13482;DHT22;6813;60.352;15.746;2022-10-16T00:40:31;10.80;99.90
13482;DHT22;6813;60.352;15.746;2022-10-16T00:42:57;10.90;99.90
13482;DHT22;6813;60.352;15.746;2022-10-16T00:45:23;10.90;99.90
13482;DHT22;6813;60.352;15.746;2022-10-16T00:47:52;10.90;99.90
13482;DHT22;6813;60.352;15.746;2022-10-16T00:50:31;10.90;99.90
13482;DHT22;6813;60.352;15.746;2022-10-16T00:52:58;11.00;99.90
13482;DHT22;6813;60.352;15.746;2022-10-16T00:55:26;11.00;99.90
13482;DHT22;6813;60.352;15.746;2022-10-16T00:57:54;11.00;99.90
13482;DHT22;6813;60.352;15.746;2022-10-16T01:00:23;11.10;99.90
13482;DHT22;6813;60.352;15.746;2022-10-16T01:02:57;11.10;99.90
13482;DHT22;6813;60.352;15.746;2022-10-16T01:05:27;11.20;99.90
13482;DHT22;6813;60.352;15.746;2022-10-16T01:07:56;11.20;99.90
13482;DHT22;6813;60.352;15.746;2022-10-16T01:13:09;11.40;99.90
13482;DHT22;6813;60.352;15.746;2022-10-16T01:18:13;11.40;99.90
13482;DHT22;6813;60.352;15.746;2022-10-16T01:20:59;11.40;99.90
13482;DHT22;6813;60.352;15.746;2022-10-16T01:31:46;11.70;99.90
13482;DHT22;6813;60.352;15.746;2022-10-16T01:34:21;11.60;99.90
13482;DHT22;6813;60.352;15.746;2022-10-16T01:36:57;11.70;99.90
13482;DHT22;6813;60.352;15.746;2022-10-16T01:39:29;11.80;99.90
13482;DHT22;6813;60.352;15.746;2022-10-16T01:42:03;11.70;99.90
13482;DHT22;6813;60.352;15.746;2022-10-16T01:44:32;11.80;99.90
13482;DHT22;6813;60.352;15.746;2022-10-16T01:46:59;11.80;99.90
13482;DHT22;6813;60.352;15.746;2022-10-16T01:49:29;11.70;99.90
13482;DHT22;6813;60.352;15.746;2022-10-16T01:51:58;11.70;99.90
13482;DHT22;6813;60.352;15.746;2022-10-16T01:54:30;11.40;99.90
13482;DHT22;6813;60.352;15.746;2022-10-16T01:56:58;11.20;99.90
13482;DHT22;6813;60.352;15.746;2022-10-16T01:59:25;11.10;99.90
13482;DHT22;6813;60.352;15.746;2022-10-16T02:01:59;11.00;99.90
13482;DHT22;6813;60.352;15.746;2022-10-16T02:04:33;11.00;99.90
13482;DHT22;6813;60.352;15.746;2022-10-16T02:06:59;11.00;99.90
13482;DHT22;6813;60.352;15.746;2022-10-16T02:09:25;11.00;99.90
13482;DHT22;6813;60.352;15.746;2022-10-16T02:11:54;10.90;99.90
13482;DHT22;6813;60.352;15.746;2022-10-16T02:14:21;10.90;99.90
13482;DHT22;6813;60.352;15.746;2022-10-16T02:16:50;10.90;99.90
13482;DHT22;6813;60.352;15.746;2022-10-16T02:19:17;11.00;99.90
13482;DHT22;6813;60.352;15.746;2022-10-16T02:21:58;11.00;99.90
13482;DHT22;6813;60.352;15.746;2022-10-16T02:24:39;11.00;99.90
13482;DHT22;6813;60.352;15.746;2022-10-16T02:27:13;11.10;99.90
13482;DHT22;6813;60.352;15.746;2022-10-16T02:29:46;11.00;99.90
13482;DHT22;6813;60.352;15.746;2022-10-16T02:32:19;10.90;99.90
13482;DHT22;6813;60.352;15.746;2022-10-16T02:34:48;11.00;99.90
13482;DHT22;6813;60.352;15.746;2022-10-16T02:37:15;10.90;99.90
13482;DHT22;6813;60.352;15.746;2022-10-16T02:39:41;11.00;99.90
13482;DHT22;6813;60.352;15.746;2022-10-16T02:42:14;11.00;99.90
13482;DHT22;6813;60.352;15.746;2022-10-16T02:44:40;11.00;99.90
13482;DHT22;6813;60.352;15.746;2022-10-16T02:47:06;11.00;99.90
13482;DHT22;6813;60.352;15.746;2022-10-16T02:49:32;11.10;99.90
13482;DHT22;6813;60.352;15.746;2022-10-16T02:51:58;11.30;99.90
13482;DHT22;6813;60.352;15.746;2022-10-16T02:54:23;11.40;99.90
13482;DHT22;6813;60.352;15.746;2022-10-16T02:56:49;11.20;99.90
13482;DHT22;6813;60.352;15.746;2022-10-16T02:59:15;11.30;99.90
13482;DHT22;6813;60.352;15.746;2022-10-16T03:01:41;11.40;99.90
13482;DHT22;6813;60.352;15.746;2022-10-16T03:04:07;11.50;99.90
13482;DHT22;6813;60.352;15.746;2022-10-16T03:06:32;11.50;99.90
13482;DHT22;6813;60.352;15.746;2022-10-16T03:08:58;11.60;99.90
13482;DHT22;6813;60.352;15.746;2022-10-16T03:11:24;11.80;99.90
13482;DHT22;6813;60.352;15.746;2022-10-16T03:13:49;11.80;99.90
13482;DHT22;6813;60.352;15.746;2022-10-16T03:16:15;11.80;99.90
13482;DHT22;6813;60.352;15.746;2022-10-16T03:18:41;11.90;99.90
13482;DHT22;6813;60.352;15.746;2022-10-16T03:21:06;11.90;99.90
13482;DHT22;6813;60.352;15.746;2022-10-16T03:23:32;11.90;99.90
13482;DHT22;6813;60.352;15.746;2022-10-16T03:25:58;11.90;99.90
13482;DHT22;6813;60.352;15.746;2022-10-16T03:28:24;11.90;99.90
13482;DHT22;6813;60.352;15.746;2022-10-16T03:30:50;11.80;99.90
13482;DHT22;6813;60.352;15.746;2022-10-16T03:33:15;11.90;99.90
13482;DHT22;6813;60.352;15.746;2022-10-16T03:35:41;11.90;99.90
13482;DHT22;6813;60.352;15.746;2022-10-16T03:38:07;12.00;99.90
13482;DHT22;6813;60.352;15.746;2022-10-16T03:40:32;12.00;99.90
13482;DHT22;6813;60.352;15.746;2022-10-16T03:42:59;11.90;99.90
13482;DHT22;6813;60.352;15.746;2022-10-16T03:45:25;11.80;99.90
13482;DHT22;6813;60.352;15.746;2022-10-16T03:47:51;11.70;99.90
13482;DHT22;6813;60.352;15.746;2022-10-16T03:50:17;11.60;99.90
13482;DHT22;6813;60.352;15.746;2022-10-16T03:52:42;11.60;99.90
13482;DHT22;6813;60.352;15.746;2022-10-16T03:55:08;11.70;99.90
13482;DHT22;6813;60.352;15.746;2022-10-16T03:57:34;11.60;99.90
13482;DHT22;6813;60.352;15.746;2022-10-16T03:59:59;11.40;99.90
13482;DHT22;6813;60.352;15.746;2022-10-16T04:02:25;11.50;99.90
13482;DHT22;6813;60.352;15.746;2022-10-16T04:04:51;11.50;99.90
13482;DHT22;6813;60.352;15.746;2022-10-16T04:07:16;11.50;99.90
13482;DHT22;6813;60.352;15.746;2022-10-16T04:09:42;11.60;99.90
13482;DHT22;6813;60.352;15.746;2022-10-16T04:12:08;11.40;99.90
13482;DHT22;6813;60.352;15.746;2022-10-16T04:14:33;11.50;99.90
13482;DHT22;6813;60.352;15.746;2022-10-16T04:16:59;11.50;99.90
13482;DHT22;6813;60.352;15.746;2022-10-16T04:19:25;11.40;99.90
13482;DHT22;6813;60.352;15.746;2022-10-16T04:21:51;11.40;99.90
13482;DHT22;6813;60.352;15.746;2022-10-16T04:24:17;11.40;99.90
13482;DHT22;6813;60.352;15.746;2022-10-16T04:26:42;11.50;99.90
13482;DHT22;6813;60.352;15.746;2022-10-16T04:29:08;11.50;99.90
13482;DHT22;6813;60.352;15.746;2022-10-16T04:31:34;11.50;99.90
13482;DHT22;6813;60.352;15.746;2022-10-16T04:33:59;11.60;99.90
13482;DHT22;6813;60.352;15.746;2022-10-16T04:36:25;11.60;99.90
13482;DHT22;6813;60.352;15.746;2022-10-16T04:38:51;11.30;99.90
13482;DHT22;6813;60.352;15.746;2022-10-16T04:41:16;10.90;99.90
13482;DHT22;6813;60.352;15.746;2022-10-16T04:43:42;10.70;99.90
13482;DHT22;6813;60.352;15.746;2022-10-16T04:46:07;10.50;99.90
13482;DHT22;6813;60.352;15.746;2022-10-16T04:48:33;10.40;99.90
13482;DHT22;6813;60.352;15.746;2022-10-16T04:50:59;10.40;99.90
13482;DHT22;6813;60.352;15.746;2022-10-16T04:53:25;10.60;99.90
13482;DHT22;6813;60.352;15.746;2022-10-16T04:55:50;10.80;99.90
13482;DHT22;6813;60.352;15.746;2022-10-16T04:58:17;10.90;99.90
13482;DHT22;6813;60.352;15.746;2022-10-16T05:00:43;11.00;99.90
13482;DHT22;6813;60.352;15.746;2022-10-16T05:03:09;11.10;99.90
13482;DHT22;6813;60.352;15.746;2022-10-16T05:05:35;10.70;99.90
13482;DHT22;6813;60.352;15.746;2022-10-16T05:08:02;10.60;99.90
13482;DHT22;6813;60.352;15.746;2022-10-16T05:10:28;10.40;99.90
13482;DHT22;6813;60.352;15.746;2022-10-16T05:12:53;10.40;99.90
13482;DHT22;6813;60.352;15.746;2022-10-16T05:15:19;10.50;99.90
13482;DHT22;6813;60.352;15.746;2022-10-16T05:17:45;10.50;99.90
13482;DHT22;6813;60.352;15.746;2022-10-16T05:20:11;10.60;99.90
13482;DHT22;6813;60.352;15.746;2022-10-16T05:22:37;10.70;99.90
13482;DHT22;6813;60.352;15.746;2022-10-16T05:25:03;10.80;99.90
13482;DHT22;6813;60.352;15.746;2022-10-16T05:27:30;10.80;99.90
13482;DHT22;6813;60.352;15.746;2022-10-16T05:29:56;10.70;99.90
13482;DHT22;6813;60.352;15.746;2022-10-16T05:32:22;10.50;99.90
13482;DHT22;6813;60.352;15.746;2022-10-16T05:34:47;10.30;99.90
13482;DHT22;6813;60.352;15.746;2022-10-16T05:37:13;10.10;99.90
13482;DHT22;6813;60.352;15.746;2022-10-16T05:39:39;10.00;99.90
13482;DHT22;6813;60.352;15.746;2022-10-16T05:42:05;9.90;99.90
13482;DHT22;6813;60.352;15.746;2022-10-16T05:44:31;10.00;99.90
13482;DHT22;6813;60.352;15.746;2022-10-16T05:46:57;9.90;99.90
13482;DHT22;6813;60.352;15.746;2022-10-16T05:49:23;9.90;99.90
13482;DHT22;6813;60.352;15.746;2022-10-16T05:51:48;9.80;99.90
13482;DHT22;6813;60.352;15.746;2022-10-16T05:54:14;9.70;99.90
13482;DHT22;6813;60.352;15.746;2022-10-16T05:56:40;9.70;99.90
13482;DHT22;6813;60.352;15.746;2022-10-16T05:59:06;9.60;99.90
13482;DHT22;6813;60.352;15.746;2022-10-16T06:01:32;9.60;99.90
13482;DHT22;6813;60.352;15.746;2022-10-16T06:03:58;9.80;99.90
13482;DHT22;6813;60.352;15.746;2022-10-16T06:06:26;10.10;99.90
13482;DHT22;6813;60.352;15.746;2022-10-16T06:08:54;10.20;99.90
13482;DHT22;6813;60.352;15.746;2022-10-16T06:11:25;10.30;99.90
13482;DHT22;6813;60.352;15.746;2022-10-16T06:13:52;10.50;99.90
13482;DHT22;6813;60.352;15.746;2022-10-16T06:16:18;10.80;99.90
13482;DHT22;6813;60.352;15.746;2022-10-16T06:18:44;11.00;99.90
13482;DHT22;6813;60.352;15.746;2022-10-16T06:21:13;11.20;99.90
13482;DHT22;6813;60.352;15.746;2022-10-16T06:23:39;11.30;99.90
13482;DHT22;6813;60.352;15.746;2022-10-16T06:26:13;11.30;99.90
13482;DHT22;6813;60.352;15.746;2022-10-16T06:28:39;11.30;99.90
13482;DHT22;6813;60.352;15.746;2022-10-16T06:31:06;11.30;99.90
13482;DHT22;6813;60.352;15.746;2022-10-16T06:33:32;11.20;99.90
13482;DHT22;6813;60.352;15.746;2022-10-16T06:36:09;11.20;99.90
13482;DHT22;6813;60.352;15.746;2022-10-16T06:38:36;11.20;99.90
13482;DHT22;6813;60.352;15.746;2022-10-16T06:41:03;11.20;99.90
13482;DHT22;6813;60.352;15.746;2022-10-16T06:43:29;11.30;99.90
13482;DHT22;6813;60.352;15.746;2022-10-16T06:45:58;11.40;99.90
13482;DHT22;6813;60.352;15.746;2022-10-16T06:48:24;11.50;99.90
13482;DHT22;6813;60.352;15.746;2022-10-16T06:51:10;11.60;99.90
13482;DHT22;6813;60.352;15.746;2022-10-16T06:53:39;11.70;99.90
13482;DHT22;6813;60.352;15.746;2022-10-16T06:58:33;11.70;99.90
13482;DHT22;6813;60.352;15.746;2022-10-16T07:00:59;11.80;99.90
13482;DHT22;6813;60.352;15.746;2022-10-16T07:03:25;11.80;99.90
13482;DHT22;6813;60.352;15.746;2022-10-16T07:05:50;11.90;99.90
13482;DHT22;6813;60.352;15.746;2022-10-16T07:08:16;11.80;99.90
13482;DHT22;6813;60.352;15.746;2022-10-16T07:10:42;11.70;99.90
13482;DHT22;6813;60.352;15.746;2022-10-16T07:13:08;11.70;99.90
13482;DHT22;6813;60.352;15.746;2022-10-16T07:15:33;11.80;99.90
13482;DHT22;6813;60.352;15.746;2022-10-16T07:17:59;11.80;99.90
13482;DHT22;6813;60.352;15.746;2022-10-16T07:20:25;11.90;99.90
13482;DHT22;6813;60.352;15.746;2022-10-16T07:22:51;12.00;99.90
13482;DHT22;6813;60.352;15.746;2022-10-16T07:25:17;12.00;99.90
13482;DHT22;6813;60.352;15.746;2022-10-16T07:27:43;11.90;99.90
13482;DHT22;6813;60.352;15.746;2022-10-16T07:30:09;11.50;99.90
13482;DHT22;6813;60.352;15.746;2022-10-16T07:32:34;11.50;99.90
13482;DHT22;6813;60.352;15.746;2022-10-16T07:35:00;11.20;99.90
13482;DHT22;6813;60.352;15.746;2022-10-16T07:37:26;11.10;99.90
13482;DHT22;6813;60.352;15.746;2022-10-16T07:39:51;11.10;99.90
13482;DHT22;6813;60.352;15.746;2022-10-16T07:42:17;11.10;99.90
13482;DHT22;6813;60.352;15.746;2022-10-16T07:44:43;11.10;99.90
13482;DHT22;6813;60.352;15.746;2022-10-16T07:47:08;11.00;99.90
13482;DHT22;6813;60.352;15.746;2022-10-16T07:49:34;11.20;99.90
13482;DHT22;6813;60.352;15.746;2022-10-16T07:52:00;11.30;99.90
13482;DHT22;6813;60.352;15.746;2022-10-16T07:54:26;11.60;99.90
13482;DHT22;6813;60.352;15.746;2022-10-16T07:56:51;11.70;99.90
13482;DHT22;6813;60.352;15.746;2022-10-16T07:59:17;11.60;99.90
13482;DHT22;6813;60.352;15.746;2022-10-16T08:01:43;11.50;99.90
13482;DHT22;6813;60.352;15.746;2022-10-16T08:04:11;11.40;99.90
13482;DHT22;6813;60.352;15.746;2022-10-16T08:06:38;11.30;99.90
13482;DHT22;6813;60.352;15.746;2022-10-16T08:09:05;11.40;99.90
13482;DHT22;6813;60.352;15.746;2022-10-16T08:11:31;11.40;99.90
13482;DHT22;6813;60.352;15.746;2022-10-16T08:13:57;11.30;99.90
13482;DHT22;6813;60.352;15.746;2022-10-16T08:16:22;11.20;99.90
13482;DHT22;6813;60.352;15.746;2022-10-16T08:18:48;11.20;99.90
13482;DHT22;6813;60.352;15.746;2022-10-16T08:21:18;11.20;99.90
13482;DHT22;6813;60.352;15.746;2022-10-16T08:23:44;11.10;99.90
13482;DHT22;6813;60.352;15.746;2022-10-16T08:26:11;11.20;99.90
13482;DHT22;6813;60.352;15.746;2022-10-16T08:28:37;11.30;99.90
13482;DHT22;6813;60.352;15.746;2022-10-16T08:31:13;11.30;99.90
13482;DHT22;6813;60.352;15.746;2022-10-16T08:33:41;11.40;99.90
13482;DHT22;6813;60.352;15.746;2022-10-16T08:36:08;11.50;99.90
13482;DHT22;6813;60.352;15.746;2022-10-16T08:38:34;11.70;99.90
13482;DHT22;6813;60.352;15.746;2022-10-16T08:49:17;11.80;99.90
13482;DHT22;6813;60.352;15.746;2022-10-16T08:51:43;12.30;99.90
13482;DHT22;6813;60.352;15.746;2022-10-16T08:54:30;12.50;99.90
13482;DHT22;6813;60.352;15.746;2022-10-16T08:57:14;12.70;99.90
13482;DHT22;6813;60.352;15.746;2022-10-16T08:59:41;13.10;99.90
13482;DHT22;6813;60.352;15.746;2022-10-16T09:02:39;13.40;99.90
13482;DHT22;6813;60.352;15.746;2022-10-16T09:05:29;13.60;99.90
13482;DHT22;6813;60.352;15.746;2022-10-16T09:08:30;13.70;99.90
13482;DHT22;6813;60.352;15.746;2022-10-16T09:11:07;13.90;99.90
13482;DHT22;6813;60.352;15.746;2022-10-16T09:21:19;14.80;99.90
13482;DHT22;6813;60.352;15.746;2022-10-16T09:23:47;14.90;99.90
13482;DHT22;6813;60.352;15.746;2022-10-16T09:26:14;14.80;99.90
13482;DHT22;6813;60.352;15.746;2022-10-16T09:28:40;14.80;99.90
13482;DHT22;6813;60.352;15.746;2022-10-16T09:31:21;14.70;99.90
13482;DHT22;6813;60.352;15.746;2022-10-16T09:33:55;14.50;99.90
13482;DHT22;6813;60.352;15.746;2022-10-16T09:36:23;14.50;99.90
13482;DHT22;6813;60.352;15.746;2022-10-16T09:39:10;14.50;99.90
13482;DHT22;6813;60.352;15.746;2022-10-16T09:41:39;14.40;99.90
13482;DHT22;6813;60.352;15.746;2022-10-16T09:44:29;14.10;99.90
13482;DHT22;6813;60.352;15.746;2022-10-16T09:47:16;14.20;99.90
13482;DHT22;6813;60.352;15.746;2022-10-16T09:50:24;14.30;99.90
13482;DHT22;6813;60.352;15.746;2022-10-16T09:55:35;14.30;99.90
13482;DHT22;6813;60.352;15.746;2022-10-16T09:58:01;14.30;99.90
13482;DHT22;6813;60.352;15.746;2022-10-16T10:00:27;14.20;99.90
13482;DHT22;6813;60.352;15.746;2022-10-16T10:02:54;14.10;99.90
13482;DHT22;6813;60.352;15.746;2022-10-16T10:05:24;14.10;99.90
13482;DHT22;6813;60.352;15.746;2022-10-16T10:08:13;14.10;99.90
13482;DHT22;6813;60.352;15.746;2022-10-16T10:10:42;14.20;99.90
13482;DHT22;6813;60.352;15.746;2022-10-16T10:13:19;14.40;99.90
13482;DHT22;6813;60.352;15.746;2022-10-16T10:15:45;14.50;99.90
13482;DHT22;6813;60.352;15.746;2022-10-16T10:18:20;14.60;99.90
13482;DHT22;6813;60.352;15.746;2022-10-16T10:21:00;14.70;99.90
13482;DHT22;6813;60.352;15.746;2022-10-16T10:23:28;14.80;99.90
13482;DHT22;6813;60.352;15.746;2022-10-16T10:26:18;14.70;99.90
13482;DHT22;6813;60.352;15.746;2022-10-16T10:31:55;15.00;99.90
13482;DHT22;6813;60.352;15.746;2022-10-16T10:43:46;15.40;99.90
13482;DHT22;6813;60.352;15.746;2022-10-16T10:46:38;15.20;99.90
13482;DHT22;6813;60.352;15.746;2022-10-16T11:10:16;15.80;99.90
13482;DHT22;6813;60.352;15.746;2022-10-16T11:12:47;15.60;99.90
13482;DHT22;6813;60.352;15.746;2022-10-16T11:17:55;15.60;99.90
13482;DHT22;6813;60.352;15.746;2022-10-16T11:23:31;15.60;99.90
13482;DHT22;6813;60.352;15.746;2022-10-16T11:26:04;15.70;99.90
13482;DHT22;6813;60.352;15.746;2022-10-16T11:28:36;15.60;99.90
13482;DHT22;6813;60.352;15.746;2022-10-16T11:34:02;15.50;99.90
13482;DHT22;6813;60.352;15.746;2022-10-16T11:36:40;15.50;99.90
13482;DHT22;6813;60.352;15.746;2022-10-16T11:39:26;15.40;99.90
13482;DHT22;6813;60.352;15.746;2022-10-16T11:42:16;15.40;99.90
13482;DHT22;6813;60.352;15.746;2022-10-16T11:56:02;14.70;99.90
13482;DHT22;6813;60.352;15.746;2022-10-16T11:58:47;14.40;99.90
13482;DHT22;6813;60.352;15.746;2022-10-16T12:01:39;14.40;99.90
13482;DHT22;6813;60.352;15.746;2022-10-16T12:04:24;14.50;99.90
13482;DHT22;6813;60.352;15.746;2022-10-16T12:07:14;14.40;99.90
13482;DHT22;6813;60.352;15.746;2022-10-16T12:09:42;14.20;99.90
13482;DHT22;6813;60.352;15.746;2022-10-16T12:15:02;14.30;99.90
13482;DHT22;6813;60.352;15.746;2022-10-16T12:17:38;13.80;99.90
13482;DHT22;6813;60.352;15.746;2022-10-16T12:22:49;13.80;99.90
13482;DHT22;6813;60.352;15.746;2022-10-16T12:25:33;13.60;99.90
13482;DHT22;6813;60.352;15.746;2022-10-16T12:30:41;13.30;99.90
13482;DHT22;6813;60.352;15.746;2022-10-16T12:35:57;12.90;99.90
13482;DHT22;6813;60.352;15.746;2022-10-16T12:41:08;13.10;99.90
13482;DHT22;6813;60.352;15.746;2022-10-16T12:43:40;13.10;99.90
13482;DHT22;6813;60.352;15.746;2022-10-16T12:48:36;13.70;99.90
13482;DHT22;6813;60.352;15.746;2022-10-16T12:59:57;13.20;99.90
13482;DHT22;6813;60.352;15.746;2022-10-16T13:29:35;12.60;99.90
13482;DHT22;6813;60.352;15.746;2022-10-16T13:32:06;12.40;99.90
13482;DHT22;6813;60.352;15.746;2022-10-16T13:34:32;12.30;99.90
13482;DHT22;6813;60.352;15.746;2022-10-16T13:36:58;12.30;99.90
13482;DHT22;6813;60.352;15.746;2022-10-16T13:42:07;12.30;99.90
13482;DHT22;6813;60.352;15.746;2022-10-16T13:44:46;12.10;99.90
13482;DHT22;6813;60.352;15.746;2022-10-16T13:49:58;12.00;99.90
13482;DHT22;6813;60.352;15.746;2022-10-16T13:52:24;12.20;99.90
13482;DHT22;6813;60.352;15.746;2022-10-16T13:54:49;12.30;99.90
13482;DHT22;6813;60.352;15.746;2022-10-16T13:57:16;12.20;99.90
13482;DHT22;6813;60.352;15.746;2022-10-16T13:59:42;12.20;99.90
13482;DHT22;6813;60.352;15.746;2022-10-16T14:04:46;12.20;99.90
13482;DHT22;6813;60.352;15.746;2022-10-16T14:07:23;12.10;99.90
13482;DHT22;6813;60.352;15.746;2022-10-16T14:09:50;12.20;99.90
13482;DHT22;6813;60.352;15.746;2022-10-16T14:12:17;12.20;99.90
13482;DHT22;6813;60.352;15.746;2022-10-16T14:14:48;12.20;99.90
13482;DHT22;6813;60.352;15.746;2022-10-16T14:17:34;12.40;99.90
13482;DHT22;6813;60.352;15.746;2022-10-16T14:20:04;12.60;99.90
13482;DHT22;6813;60.352;15.746;2022-10-16T14:22:40;12.70;99.90
13482;DHT22;6813;60.352;15.746;2022-10-16T14:27:44;12.70;99.90
13482;DHT22;6813;60.352;15.746;2022-10-16T14:30:21;12.60;99.90
13482;DHT22;6813;60.352;15.746;2022-10-16T14:33:19;12.50;99.90
13482;DHT22;6813;60.352;15.746;2022-10-16T14:35:45;12.20;99.90
13482;DHT22;6813;60.352;15.746;2022-10-16T14:38:19;12.20;99.90
13482;DHT22;6813;60.352;15.746;2022-10-16T14:40:47;12.30;99.90
13482;DHT22;6813;60.352;15.746;2022-10-16T14:43:38;12.40;99.90
13482;DHT22;6813;60.352;15.746;2022-10-16T14:46:14;12.50;99.90
13482;DHT22;6813;60.352;15.746;2022-10-16T14:48:47;12.40;99.90
13482;DHT22;6813;60.352;15.746;2022-10-16T14:51:20;12.40;99.90
13482;DHT22;6813;60.352;15.746;2022-10-16T14:53:46;12.40;99.90
13482;DHT22;6813;60.352;15.746;2022-10-16T14:56:28;12.20;99.90
13482;DHT22;6813;60.352;15.746;2022-10-16T14:58:55;12.10;99.90
13482;DHT22;6813;60.352;15.746;2022-10-16T15:01:21;12.20;99.90
13482;DHT22;6813;60.352;15.746;2022-10-16T15:03:47;12.40;99.90
13482;DHT22;6813;60.352;15.746;2022-10-16T15:06:15;12.60;99.90
13482;DHT22;6813;60.352;15.746;2022-10-16T15:08:42;12.70;99.90
13482;DHT22;6813;60.352;15.746;2022-10-16T15:11:18;12.80;99.90
13482;DHT22;6813;60.352;15.746;2022-10-16T15:13:45;12.90;99.90
13482;DHT22;6813;60.352;15.746;2022-10-16T15:16:13;12.80;99.90
13482;DHT22;6813;60.352;15.746;2022-10-16T15:18:39;12.60;99.90
13482;DHT22;6813;60.352;15.746;2022-10-16T15:21:05;12.50;99.90
13482;DHT22;6813;60.352;15.746;2022-10-16T15:23:31;12.30;99.90
13482;DHT22;6813;60.352;15.746;2022-10-16T15:25:57;12.10;99.90
13482;DHT22;6813;60.352;15.746;2022-10-16T15:28:23;12.00;99.90
13482;DHT22;6813;60.352;15.746;2022-10-16T15:30:51;11.90;99.90
13482;DHT22;6813;60.352;15.746;2022-10-16T15:33:22;11.90;99.90
13482;DHT22;6813;60.352;15.746;2022-10-16T15:35:50;11.70;99.90
13482;DHT22;6813;60.352;15.746;2022-10-16T15:38:18;11.50;99.90
13482;DHT22;6813;60.352;15.746;2022-10-16T15:40:45;11.30;99.90
13482;DHT22;6813;60.352;15.746;2022-10-16T15:43:10;11.50;99.90
13482;DHT22;6813;60.352;15.746;2022-10-16T15:45:37;11.40;99.90
13482;DHT22;6813;60.352;15.746;2022-10-16T15:48:02;11.30;99.90
13482;DHT22;6813;60.352;15.746;2022-10-16T15:50:30;11.20;99.90
13482;DHT22;6813;60.352;15.746;2022-10-16T15:52:56;11.30;99.90
13482;DHT22;6813;60.352;15.746;2022-10-16T15:55:22;11.20;99.90
13482;DHT22;6813;60.352;15.746;2022-10-16T15:57:48;11.10;99.90
13482;DHT22;6813;60.352;15.746;2022-10-16T16:00:19;11.10;99.90
13482;DHT22;6813;60.352;15.746;2022-10-16T16:02:52;11.10;99.90
13482;DHT22;6813;60.352;15.746;2022-10-16T16:05:20;11.20;99.90
13482;DHT22;6813;60.352;15.746;2022-10-16T16:07:46;11.00;99.90
13482;DHT22;6813;60.352;15.746;2022-10-16T16:10:12;10.90;99.90
13482;DHT22;6813;60.352;15.746;2022-10-16T16:12:38;10.90;99.90
13482;DHT22;6813;60.352;15.746;2022-10-16T16:15:08;11.00;99.90
13482;DHT22;6813;60.352;15.746;2022-10-16T16:17:35;11.20;99.90
13482;DHT22;6813;60.352;15.746;2022-10-16T16:20:02;11.10;99.90
13482;DHT22;6813;60.352;15.746;2022-10-16T16:22:29;11.00;99.90
13482;DHT22;6813;60.352;15.746;2022-10-16T16:24:55;10.80;99.90
13482;DHT22;6813;60.352;15.746;2022-10-16T16:27:21;10.80;99.90
13482;DHT22;6813;60.352;15.746;2022-10-16T16:29:47;10.90;99.90
13482;DHT22;6813;60.352;15.746;2022-10-16T16:32:13;11.10;99.90
13482;DHT22;6813;60.352;15.746;2022-10-16T16:34:38;11.10;99.90
13482;DHT22;6813;60.352;15.746;2022-10-16T16:37:04;11.00;99.90
13482;DHT22;6813;60.352;15.746;2022-10-16T16:39:30;11.10;99.90
13482;DHT22;6813;60.352;15.746;2022-10-16T16:41:56;11.10;99.90
13482;DHT22;6813;60.352;15.746;2022-10-16T16:44:23;11.00;99.90
13482;DHT22;6813;60.352;15.746;2022-10-16T16:46:49;11.20;99.90
13482;DHT22;6813;60.352;15.746;2022-10-16T16:49:15;11.20;99.90
13482;DHT22;6813;60.352;15.746;2022-10-16T16:51:41;11.30;99.90
13482;DHT22;6813;60.352;15.746;2022-10-16T16:54:07;11.40;99.90
13482;DHT22;6813;60.352;15.746;2022-10-16T16:56:34;11.40;99.90
13482;DHT22;6813;60.352;15.746;2022-10-16T16:59:01;11.40;99.90
13482;DHT22;6813;60.352;15.746;2022-10-16T17:01:27;11.40;99.90
13482;DHT22;6813;60.352;15.746;2022-10-16T17:03:55;11.40;99.90
13482;DHT22;6813;60.352;15.746;2022-10-16T17:06:23;11.40;99.90
13482;DHT22;6813;60.352;15.746;2022-10-16T17:08:49;11.30;99.90
13482;DHT22;6813;60.352;15.746;2022-10-16T17:11:18;11.30;99.90
13482;DHT22;6813;60.352;15.746;2022-10-16T17:13:45;11.20;99.90
13482;DHT22;6813;60.352;15.746;2022-10-16T17:16:11;11.20;99.90
13482;DHT22;6813;60.352;15.746;2022-10-16T17:18:37;11.20;99.90
13482;DHT22;6813;60.352;15.746;2022-10-16T17:21:05;11.30;99.90
13482;DHT22;6813;60.352;15.746;2022-10-16T17:23:32;11.20;99.90
13482;DHT22;6813;60.352;15.746;2022-10-16T17:26:13;11.20;99.90
13482;DHT22;6813;60.352;15.746;2022-10-16T17:28:39;11.30;99.90
13482;DHT22;6813;60.352;15.746;2022-10-16T17:31:10;11.20;99.90
13482;DHT22;6813;60.352;15.746;2022-10-16T17:33:36;11.10;99.90
13482;DHT22;6813;60.352;15.746;2022-10-16T17:36:03;11.20;99.90
13482;DHT22;6813;60.352;15.746;2022-10-16T17:38:29;11.20;99.90
13482;DHT22;6813;60.352;15.746;2022-10-16T17:40:54;11.10;99.90
13482;DHT22;6813;60.352;15.746;2022-10-16T17:43:20;11.00;99.90
13482;DHT22;6813;60.352;15.746;2022-10-16T17:45:46;11.10;99.90
13482;DHT22;6813;60.352;15.746;2022-10-16T17:48:12;11.10;99.90
13482;DHT22;6813;60.352;15.746;2022-10-16T17:50:42;11.10;99.90
13482;DHT22;6813;60.352;15.746;2022-10-16T17:53:08;11.00;99.90
13482;DHT22;6813;60.352;15.746;2022-10-16T17:55:40;11.20;99.90
13482;DHT22;6813;60.352;15.746;2022-10-16T17:58:07;11.10;99.90
13482;DHT22;6813;60.352;15.746;2022-10-16T18:00:36;10.90;99.90
13482;DHT22;6813;60.352;15.746;2022-10-16T18:03:02;10.70;99.90
13482;DHT22;6813;60.352;15.746;2022-10-16T18:05:32;10.50;99.90
13482;DHT22;6813;60.352;15.746;2022-10-16T18:08:02;10.50;99.90
13482;DHT22;6813;60.352;15.746;2022-10-16T18:10:27;10.30;99.90
13482;DHT22;6813;60.352;15.746;2022-10-16T18:12:59;10.10;99.90